sensor_id;sensor_type;location;lat;lon;timestamp;temperature;humidity
24638;DHT22;12773;50.162;8.548;2024-03-06T00:01:27;8.20;99.90
24638;DHT22;12773;50.162;8.548;2024-03-06T00:04:15;8.20;99.90
24638;DHT22;12773;50.162;8.548;2024-03-06T00:07:04;8.20;99.90
24638;DHT22;12773;50.162;8.548;2024-03-06T00:09:52;8.20;99.90
24638;DHT22;12773;50.162;8.548;2024-03-06T00:12:40;8.20;99.90
24638;DHT22;12773;50.162;8.548;2024-03-06T00:15:27;8.20;99.90
24638;DHT22;12773;50.162;8.548;2024-03-06T00:18:15;8.10;99.90
24638;DHT22;12773;50.162;8.548;2024-03-06T00:21:02;8.10;99.90
24638;DHT22;12773;50.162;8.548;2024-03-06T00:23:50;8.10;99.90
24638;DHT22;12773;50.162;8.548;2024-03-06T00:26:40;8.20;99.90
24638;DHT22;12773;50.162;8.548;2024-03-06T00:29:28;8.20;99.90
24638;DHT22;12773;50.162;8.548;2024-03-06T00:32:17;8.10;99.90
24638;DHT22;12773;50.162;8.548;2024-03-06T00:35:05;8.00;99.90
24638;DHT22;12773;50.162;8.548;2024-03-06T00:37:52;8.00;99.90
24638;DHT22;12773;50.162;8.548;2024-03-06T00:40:41;7.90;99.90
24638;DHT22;12773;50.162;8.548;2024-03-06T00:43:29;7.70;99.90
24638;DHT22;12773;50.162;8.548;2024-03-06T00:46:16;7.40;99.90
24638;DHT22;12773;50.162;8.548;2024-03-06T00:49:04;7.20;99.90
24638;DHT22;12773;50.162;8.548;2024-03-06T00:51:52;7.00;99.90
24638;DHT22;12773;50.162;8.548;2024-03-06T00:54:40;7.10;99.90
24638;DHT22;12773;50.162;8.548;2024-03-06T00:57:27;7.20;99.90
24638;DHT22;12773;50.162;8.548;2024-03-06T01:00:15;7.30;99.90
24638;DHT22;12773;50.162;8.548;2024-03-06T01:03:03;7.20;99.90
24638;DHT22;12773;50.162;8.548;2024-03-06T01:05:50;7.20;99.90
24638;DHT22;12773;50.162;8.548;2024-03-06T01:08:41;7.00;99.90
24638;DHT22;12773;50.162;8.548;2024-03-06T01:11:29;7.00;99.90
24638;DHT22;12773;50.162;8.548;2024-03-06T01:14:16;7.00;99.90
24638;DHT22;12773;50.162;8.548;2024-03-06T01:17:04;7.00;99.90
24638;DHT22;12773;50.162;8.548;2024-03-06T01:19:52;7.00;99.90
24638;DHT22;12773;50.162;8.548;2024-03-06T01:22:40;6.90;99.90
24638;DHT22;12773;50.162;8.548;2024-03-06T01:25:27;6.90;99.90
24638;DHT22;12773;50.162;8.548;2024-03-06T01:28:15;6.90;99.90
24638;DHT22;12773;50.162;8.548;2024-03-06T01:31:02;7.00;99.90
24638;DHT22;12773;50.162;8.548;2024-03-06T01:33:50;7.10;99.90
24638;DHT22;12773;50.162;8.548;2024-03-06T01:36:38;7.20;99.90
24638;DHT22;12773;50.162;8.548;2024-03-06T01:39:25;7.30;99.90
24638;DHT22;12773;50.162;8.548;2024-03-06T01:42:13;7.20;99.90
24638;DHT22;12773;50.162;8.548;2024-03-06T01:45:02;7.10;99.90
24638;DHT22;12773;50.162;8.548;2024-03-06T01:47:50;7.00;99.90
24638;DHT22;12773;50.162;8.548;2024-03-06T01:50:38;7.00;99.90
24638;DHT22;12773;50.162;8.548;2024-03-06T01:53:27;7.00;99.90
24638;DHT22;12773;50.162;8.548;2024-03-06T01:56:17;7.00;99.90
24638;DHT22;12773;50.162;8.548;2024-03-06T01:59:05;7.00;99.90
24638;DHT22;12773;50.162;8.548;2024-03-06T02:01:53;7.00;99.90
24638;DHT22;12773;50.162;8.548;2024-03-06T02:04:41;7.00;99.90
24638;DHT22;12773;50.162;8.548;2024-03-06T02:07:30;6.90;99.90
24638;DHT22;12773;50.162;8.548;2024-03-06T02:10:19;6.80;99.90
24638;DHT22;12773;50.162;8.548;2024-03-06T02:13:07;6.50;99.90
24638;DHT22;12773;50.162;8.548;2024-03-06T02:15:56;6.40;99.90
24638;DHT22;12773;50.162;8.548;2024-03-06T02:18:54;6.30;99.90
24638;DHT22;12773;50.162;8.548;2024-03-06T02:21:41;6.30;99.90
24638;DHT22;12773;50.162;8.548;2024-03-06T02:24:29;6.10;99.90
24638;DHT22;12773;50.162;8.548;2024-03-06T02:27:16;6.10;99.90
24638;DHT22;12773;50.162;8.548;2024-03-06T02:30:04;6.10;99.90
24638;DHT22;12773;50.162;8.548;2024-03-06T02:32:52;6.20;99.90
24638;DHT22;12773;50.162;8.548;2024-03-06T02:35:39;6.30;99.90
24638;DHT22;12773;50.162;8.548;2024-03-06T02:38:27;6.30;99.90
24638;DHT22;12773;50.162;8.548;2024-03-06T02:41:14;6.30;99.90
24638;DHT22;12773;50.162;8.548;2024-03-06T02:44:03;6.20;99.90
24638;DHT22;12773;50.162;8.548;2024-03-06T02:46:51;6.20;99.90
24638;DHT22;12773;50.162;8.548;2024-03-06T02:49:39;6.20;99.90
24638;DHT22;12773;50.162;8.548;2024-03-06T02:52:26;6.30;99.90
24638;DHT22;12773;50.162;8.548;2024-03-06T02:55:14;6.30;99.90
24638;DHT22;12773;50.162;8.548;2024-03-06T02:58:02;6.30;99.90
24638;DHT22;12773;50.162;8.548;2024-03-06T03:00:50;6.40;99.90
24638;DHT22;12773;50.162;8.548;2024-03-06T03:03:38;6.40;99.90
24638;DHT22;12773;50.162;8.548;2024-03-06T03:06:26;6.50;99.90
24638;DHT22;12773;50.162;8.548;2024-03-06T03:09:15;6.50;99.90
24638;DHT22;12773;50.162;8.548;2024-03-06T03:12:02;6.60;99.90
24638;DHT22;12773;50.162;8.548;2024-03-06T03:14:50;6.70;99.90
24638;DHT22;12773;50.162;8.548;2024-03-06T03:17:38;6.70;99.90
24638;DHT22;12773;50.162;8.548;2024-03-06T03:20:25;6.80;99.90
24638;DHT22;12773;50.162;8.548;2024-03-06T03:23:13;6.80;99.90
24638;DHT22;12773;50.162;8.548;2024-03-06T03:26:03;7.00;99.90
24638;DHT22;12773;50.162;8.548;2024-03-06T03:28:50;6.90;99.90
24638;DHT22;12773;50.162;8.548;2024-03-06T03:31:37;6.90;99.90
24638;DHT22;12773;50.162;8.548;2024-03-06T03:34:25;6.90;99.90
24638;DHT22;12773;50.162;8.548;2024-03-06T03:37:13;6.90;99.90
24638;DHT22;12773;50.162;8.548;2024-03-06T03:40:01;6.90;99.90
24638;DHT22;12773;50.162;8.548;2024-03-06T03:42:49;6.90;99.90
24638;DHT22;12773;50.162;8.548;2024-03-06T03:45:36;6.80;99.90
24638;DHT22;12773;50.162;8.548;2024-03-06T03:48:24;6.80;99.90
24638;DHT22;12773;50.162;8.548;2024-03-06T03:51:11;6.80;99.90
24638;DHT22;12773;50.162;8.548;2024-03-06T03:53:59;6.80;99.90
24638;DHT22;12773;50.162;8.548;2024-03-06T03:56:47;6.80;99.90
24638;DHT22;12773;50.162;8.548;2024-03-06T03:59:35;6.70;99.90
24638;DHT22;12773;50.162;8.548;2024-03-06T04:02:23;6.70;99.90
24638;DHT22;12773;50.162;8.548;2024-03-06T04:05:11;6.80;99.90
24638;DHT22;12773;50.162;8.548;2024-03-06T04:07:59;6.80;99.90
24638;DHT22;12773;50.162;8.548;2024-03-06T04:10:46;6.80;99.90
24638;DHT22;12773;50.162;8.548;2024-03-06T04:13:37;6.80;99.90
24638;DHT22;12773;50.162;8.548;2024-03-06T04:16:25;6.80;99.90
24638;DHT22;12773;50.162;8.548;2024-03-06T04:19:14;6.70;99.90
24638;DHT22;12773;50.162;8.548;2024-03-06T04:22:02;6.70;99.90
24638;DHT22;12773;50.162;8.548;2024-03-06T04:24:49;6.60;99.90
24638;DHT22;12773;50.162;8.548;2024-03-06T04:27:37;6.50;99.90
24638;DHT22;12773;50.162;8.548;2024-03-06T04:30:24;6.40;99.90
24638;DHT22;12773;50.162;8.548;2024-03-06T04:33:12;6.30;99.90
24638;DHT22;12773;50.162;8.548;2024-03-06T04:36:03;6.20;99.90
24638;DHT22;12773;50.162;8.548;2024-03-06T04:38:52;6.10;99.90
24638;DHT22;12773;50.162;8.548;2024-03-06T04:41:40;6.10;99.90
24638;DHT22;12773;50.162;8.548;2024-03-06T04:44:28;6.20;99.90
24638;DHT22;12773;50.162;8.548;2024-03-06T04:47:15;6.30;99.90
24638;DHT22;12773;50.162;8.548;2024-03-06T04:50:07;6.30;99.90
24638;DHT22;12773;50.162;8.548;2024-03-06T04:52:52;6.40;99.90
24638;DHT22;12773;50.162;8.548;2024-03-06T04:55:40;6.40;99.90
24638;DHT22;12773;50.162;8.548;2024-03-06T04:58:28;6.50;99.90
24638;DHT22;12773;50.162;8.548;2024-03-06T05:01:16;6.50;99.90
24638;DHT22;12773;50.162;8.548;2024-03-06T05:04:03;6.40;99.90
24638;DHT22;12773;50.162;8.548;2024-03-06T05:07:09;6.40;99.90
24638;DHT22;12773;50.162;8.548;2024-03-06T05:10:14;6.10;99.90
24638;DHT22;12773;50.162;8.548;2024-03-06T05:13:22;6.00;99.90
24638;DHT22;12773;50.162;8.548;2024-03-06T05:16:28;6.00;99.90
24638;DHT22;12773;50.162;8.548;2024-03-06T05:19:33;6.20;99.90
24638;DHT22;12773;50.162;8.548;2024-03-06T05:22:39;6.20;99.90
24638;DHT22;12773;50.162;8.548;2024-03-06T05:25:44;6.30;99.90
24638;DHT22;12773;50.162;8.548;2024-03-06T05:28:49;6.30;99.90
24638;DHT22;12773;50.162;8.548;2024-03-06T05:31:54;6.30;99.90
24638;DHT22;12773;50.162;8.548;2024-03-06T05:35:00;6.40;99.90
24638;DHT22;12773;50.162;8.548;2024-03-06T05:38:05;6.50;99.90
24638;DHT22;12773;50.162;8.548;2024-03-06T05:41:11;6.50;99.90
24638;DHT22;12773;50.162;8.548;2024-03-06T05:44:16;6.60;99.90
24638;DHT22;12773;50.162;8.548;2024-03-06T05:47:23;6.60;99.90
24638;DHT22;12773;50.162;8.548;2024-03-06T05:50:28;6.60;99.90
24638;DHT22;12773;50.162;8.548;2024-03-06T05:53:39;6.60;99.90
24638;DHT22;12773;50.162;8.548;2024-03-06T05:56:48;6.60;99.90
24638;DHT22;12773;50.162;8.548;2024-03-06T05:59:55;6.50;99.90
24638;DHT22;12773;50.162;8.548;2024-03-06T06:02:43;6.30;99.90
24638;DHT22;12773;50.162;8.548;2024-03-06T06:05:32;6.10;99.90
24638;DHT22;12773;50.162;8.548;2024-03-06T06:08:19;6.10;99.90
24638;DHT22;12773;50.162;8.548;2024-03-06T06:11:07;6.10;99.90
24638;DHT22;12773;50.162;8.548;2024-03-06T06:13:55;6.20;99.90
24638;DHT22;12773;50.162;8.548;2024-03-06T06:16:42;6.30;99.90
24638;DHT22;12773;50.162;8.548;2024-03-06T06:19:30;6.40;99.90
24638;DHT22;12773;50.162;8.548;2024-03-06T06:22:17;6.50;99.90
24638;DHT22;12773;50.162;8.548;2024-03-06T06:25:05;6.60;99.90
24638;DHT22;12773;50.162;8.548;2024-03-06T06:27:54;6.70;99.90
24638;DHT22;12773;50.162;8.548;2024-03-06T06:30:41;6.80;99.90
24638;DHT22;12773;50.162;8.548;2024-03-06T06:33:29;6.90;99.90
24638;DHT22;12773;50.162;8.548;2024-03-06T06:36:16;7.00;99.90
24638;DHT22;12773;50.162;8.548;2024-03-06T06:39:04;7.00;99.90
24638;DHT22;12773;50.162;8.548;2024-03-06T06:41:52;6.90;99.90
24638;DHT22;12773;50.162;8.548;2024-03-06T06:44:40;6.80;99.90
24638;DHT22;12773;50.162;8.548;2024-03-06T06:47:29;6.70;99.90
24638;DHT22;12773;50.162;8.548;2024-03-06T06:50:16;6.70;99.90
24638;DHT22;12773;50.162;8.548;2024-03-06T06:53:04;6.80;99.90
24638;DHT22;12773;50.162;8.548;2024-03-06T06:55:52;6.90;99.90
24638;DHT22;12773;50.162;8.548;2024-03-06T06:58:40;6.90;99.90
24638;DHT22;12773;50.162;8.548;2024-03-06T07:01:29;6.80;99.90
24638;DHT22;12773;50.162;8.548;2024-03-06T07:04:17;6.60;99.90
24638;DHT22;12773;50.162;8.548;2024-03-06T07:07:06;6.60;99.90
24638;DHT22;12773;50.162;8.548;2024-03-06T07:09:53;6.70;99.90
24638;DHT22;12773;50.162;8.548;2024-03-06T07:12:41;6.90;99.90
24638;DHT22;12773;50.162;8.548;2024-03-06T07:15:28;7.10;99.90
24638;DHT22;12773;50.162;8.548;2024-03-06T07:18:16;7.20;99.90
24638;DHT22;12773;50.162;8.548;2024-03-06T07:21:03;7.40;99.90
24638;DHT22;12773;50.162;8.548;2024-03-06T07:23:51;7.50;99.90
24638;DHT22;12773;50.162;8.548;2024-03-06T07:26:39;7.60;99.90
24638;DHT22;12773;50.162;8.548;2024-03-06T07:29:27;7.80;99.90
24638;DHT22;12773;50.162;8.548;2024-03-06T07:32:15;8.00;99.90
24638;DHT22;12773;50.162;8.548;2024-03-06T07:35:02;8.20;99.90
24638;DHT22;12773;50.162;8.548;2024-03-06T07:37:50;8.30;99.90
24638;DHT22;12773;50.162;8.548;2024-03-06T07:40:38;8.50;99.90
24638;DHT22;12773;50.162;8.548;2024-03-06T07:43:25;8.70;99.90
24638;DHT22;12773;50.162;8.548;2024-03-06T07:46:13;8.80;99.90
24638;DHT22;12773;50.162;8.548;2024-03-06T07:49:00;8.90;99.90
24638;DHT22;12773;50.162;8.548;2024-03-06T07:51:49;9.00;99.90
24638;DHT22;12773;50.162;8.548;2024-03-06T07:54:37;9.00;99.90
24638;DHT22;12773;50.162;8.548;2024-03-06T07:57:26;9.10;99.90
24638;DHT22;12773;50.162;8.548;2024-03-06T08:00:14;9.20;99.90
24638;DHT22;12773;50.162;8.548;2024-03-06T08:03:01;9.20;99.90
24638;DHT22;12773;50.162;8.548;2024-03-06T08:05:52;9.30;99.90
24638;DHT22;12773;50.162;8.548;2024-03-06T08:08:41;9.50;99.90
24638;DHT22;12773;50.162;8.548;2024-03-06T08:11:30;9.50;99.90
24638;DHT22;12773;50.162;8.548;2024-03-06T08:14:18;9.60;99.90
24638;DHT22;12773;50.162;8.548;2024-03-06T08:17:06;9.70;99.90
24638;DHT22;12773;50.162;8.548;2024-03-06T08:19:54;9.90;99.90
24638;DHT22;12773;50.162;8.548;2024-03-06T08:22:42;10.00;99.90
24638;DHT22;12773;50.162;8.548;2024-03-06T08:25:29;10.20;99.90
24638;DHT22;12773;50.162;8.548;2024-03-06T08:28:19;10.40;99.90
24638;DHT22;12773;50.162;8.548;2024-03-06T08:31:07;10.60;99.90
24638;DHT22;12773;50.162;8.548;2024-03-06T08:33:54;10.70;99.90
24638;DHT22;12773;50.162;8.548;2024-03-06T08:36:42;10.50;99.90
24638;DHT22;12773;50.162;8.548;2024-03-06T08:39:30;10.70;99.90
24638;DHT22;12773;50.162;8.548;2024-03-06T08:42:18;10.90;99.90
24638;DHT22;12773;50.162;8.548;2024-03-06T08:45:06;11.00;99.90
24638;DHT22;12773;50.162;8.548;2024-03-06T08:47:54;11.00;99.90
24638;DHT22;12773;50.162;8.548;2024-03-06T08:50:42;10.80;99.90
24638;DHT22;12773;50.162;8.548;2024-03-06T08:53:29;10.90;99.90
24638;DHT22;12773;50.162;8.548;2024-03-06T08:56:17;11.00;99.90
24638;DHT22;12773;50.162;8.548;2024-03-06T08:59:05;11.10;99.90
24638;DHT22;12773;50.162;8.548;2024-03-06T09:01:54;11.10;99.90
24638;DHT22;12773;50.162;8.548;2024-03-06T09:04:43;11.10;99.90
24638;DHT22;12773;50.162;8.548;2024-03-06T09:07:30;11.00;99.90
24638;DHT22;12773;50.162;8.548;2024-03-06T09:10:17;11.10;99.90
24638;DHT22;12773;50.162;8.548;2024-03-06T09:13:06;11.20;99.90
24638;DHT22;12773;50.162;8.548;2024-03-06T09:15:54;11.40;99.90
24638;DHT22;12773;50.162;8.548;2024-03-06T09:18:41;11.60;99.90
24638;DHT22;12773;50.162;8.548;2024-03-06T09:21:29;11.60;99.90
24638;DHT22;12773;50.162;8.548;2024-03-06T09:24:16;11.40;99.90
24638;DHT22;12773;50.162;8.548;2024-03-06T09:27:04;11.30;99.90
24638;DHT22;12773;50.162;8.548;2024-03-06T09:29:51;11.30;99.90
24638;DHT22;12773;50.162;8.548;2024-03-06T09:32:38;11.60;99.90
24638;DHT22;12773;50.162;8.548;2024-03-06T09:35:26;11.90;99.90
24638;DHT22;12773;50.162;8.548;2024-03-06T09:38:13;12.20;99.90
24638;DHT22;12773;50.162;8.548;2024-03-06T09:41:02;12.30;99.90
24638;DHT22;12773;50.162;8.548;2024-03-06T09:43:50;12.40;99.90
24638;DHT22;12773;50.162;8.548;2024-03-06T09:46:37;12.20;99.90
24638;DHT22;12773;50.162;8.548;2024-03-06T09:49:25;12.20;99.90
24638;DHT22;12773;50.162;8.548;2024-03-06T09:52:12;12.20;99.90
24638;DHT22;12773;50.162;8.548;2024-03-06T09:55:01;12.20;99.90
24638;DHT22;12773;50.162;8.548;2024-03-06T09:57:50;12.20;99.90
24638;DHT22;12773;50.162;8.548;2024-03-06T10:00:37;12.30;99.90
24638;DHT22;12773;50.162;8.548;2024-03-06T10:03:24;12.30;99.90
24638;DHT22;12773;50.162;8.548;2024-03-06T10:06:12;12.30;99.90
24638;DHT22;12773;50.162;8.548;2024-03-06T10:09:04;12.40;99.90
24638;DHT22;12773;50.162;8.548;2024-03-06T10:11:53;12.50;99.90
24638;DHT22;12773;50.162;8.548;2024-03-06T10:14:50;12.20;99.90
24638;DHT22;12773;50.162;8.548;2024-03-06T10:17:38;12.20;99.90
24638;DHT22;12773;50.162;8.548;2024-03-06T10:20:25;12.20;99.90
24638;DHT22;12773;50.162;8.548;2024-03-06T10:23:15;12.40;99.90
24638;DHT22;12773;50.162;8.548;2024-03-06T10:26:06;12.60;99.90
24638;DHT22;12773;50.162;8.548;2024-03-06T10:28:55;12.90;99.90
24638;DHT22;12773;50.162;8.548;2024-03-06T10:31:49;12.80;99.90
24638;DHT22;12773;50.162;8.548;2024-03-06T10:34:37;13.10;99.90
24638;DHT22;12773;50.162;8.548;2024-03-06T10:37:28;13.30;99.90
24638;DHT22;12773;50.162;8.548;2024-03-06T10:40:16;13.20;99.90
24638;DHT22;12773;50.162;8.548;2024-03-06T10:43:05;13.30;99.90
24638;DHT22;12773;50.162;8.548;2024-03-06T10:46:00;13.50;99.90
24638;DHT22;12773;50.162;8.548;2024-03-06T10:48:43;13.60;99.90
24638;DHT22;12773;50.162;8.548;2024-03-06T10:51:32;13.90;99.90
24638;DHT22;12773;50.162;8.548;2024-03-06T10:54:21;14.30;99.90
24638;DHT22;12773;50.162;8.548;2024-03-06T10:57:10;13.80;99.90
24638;DHT22;12773;50.162;8.548;2024-03-06T10:59:58;13.60;99.90
24638;DHT22;12773;50.162;8.548;2024-03-06T11:02:48;13.30;99.90
24638;DHT22;12773;50.162;8.548;2024-03-06T11:05:36;13.40;99.90
24638;DHT22;12773;50.162;8.548;2024-03-06T11:08:25;13.40;99.90
24638;DHT22;12773;50.162;8.548;2024-03-06T11:11:23;13.30;99.90
24638;DHT22;12773;50.162;8.548;2024-03-06T11:14:13;13.50;99.90
24638;DHT22;12773;50.162;8.548;2024-03-06T11:17:05;13.50;99.90
24638;DHT22;12773;50.162;8.548;2024-03-06T11:28:41;14.40;99.90
24638;DHT22;12773;50.162;8.548;2024-03-06T11:31:30;14.60;99.90
24638;DHT22;12773;50.162;8.548;2024-03-06T11:34:18;14.80;99.90
24638;DHT22;12773;50.162;8.548;2024-03-06T11:37:07;14.90;99.90
24638;DHT22;12773;50.162;8.548;2024-03-06T11:39:59;14.90;99.90
24638;DHT22;12773;50.162;8.548;2024-03-06T11:42:48;15.50;99.90
24638;DHT22;12773;50.162;8.548;2024-03-06T11:45:43;15.80;99.90
24638;DHT22;12773;50.162;8.548;2024-03-06T11:48:27;16.10;99.90
24638;DHT22;12773;50.162;8.548;2024-03-06T11:51:15;15.90;99.90
24638;DHT22;12773;50.162;8.548;2024-03-06T11:54:04;16.40;99.90
24638;DHT22;12773;50.162;8.548;2024-03-06T11:56:54;16.50;99.90
24638;DHT22;12773;50.162;8.548;2024-03-06T11:59:42;16.70;99.90
24638;DHT22;12773;50.162;8.548;2024-03-06T12:02:29;16.20;99.90
24638;DHT22;12773;50.162;8.548;2024-03-06T12:05:18;16.00;99.90
24638;DHT22;12773;50.162;8.548;2024-03-06T12:08:07;15.70;99.90
24638;DHT22;12773;50.162;8.548;2024-03-06T12:10:55;15.70;99.90
24638;DHT22;12773;50.162;8.548;2024-03-06T12:13:45;15.30;99.90
24638;DHT22;12773;50.162;8.548;2024-03-06T12:16:34;14.80;99.90
24638;DHT22;12773;50.162;8.548;2024-03-06T12:19:21;14.90;99.90
24638;DHT22;12773;50.162;8.548;2024-03-06T12:22:11;15.00;99.90
24638;DHT22;12773;50.162;8.548;2024-03-06T12:25:00;15.10;99.90
24638;DHT22;12773;50.162;8.548;2024-03-06T12:27:47;15.00;99.90
24638;DHT22;12773;50.162;8.548;2024-03-06T12:30:42;15.10;99.90
24638;DHT22;12773;50.162;8.548;2024-03-06T12:33:31;14.90;99.90
24638;DHT22;12773;50.162;8.548;2024-03-06T12:36:24;14.80;99.90
24638;DHT22;12773;50.162;8.548;2024-03-06T12:39:15;14.80;99.90
24638;DHT22;12773;50.162;8.548;2024-03-06T12:42:04;14.90;99.90
24638;DHT22;12773;50.162;8.548;2024-03-06T12:44:52;15.20;99.90
24638;DHT22;12773;50.162;8.548;2024-03-06T12:47:42;15.10;99.90
24638;DHT22;12773;50.162;8.548;2024-03-06T12:50:29;14.80;99.90
24638;DHT22;12773;50.162;8.548;2024-03-06T12:53:23;14.80;99.90
24638;DHT22;12773;50.162;8.548;2024-03-06T12:56:10;14.50;99.90
24638;DHT22;12773;50.162;8.548;2024-03-06T12:58:58;14.40;99.90
24638;DHT22;12773;50.162;8.548;2024-03-06T13:01:46;14.80;99.90
24638;DHT22;12773;50.162;8.548;2024-03-06T13:04:33;14.70;99.90
24638;DHT22;12773;50.162;8.548;2024-03-06T13:07:21;14.60;99.90
24638;DHT22;12773;50.162;8.548;2024-03-06T13:10:09;14.50;99.90
24638;DHT22;12773;50.162;8.548;2024-03-06T13:12:57;14.50;99.90
24638;DHT22;12773;50.162;8.548;2024-03-06T13:15:45;14.40;99.90
24638;DHT22;12773;50.162;8.548;2024-03-06T13:18:34;14.80;99.90
24638;DHT22;12773;50.162;8.548;2024-03-06T13:21:21;14.90;99.90
24638;DHT22;12773;50.162;8.548;2024-03-06T13:24:09;15.40;99.90
24638;DHT22;12773;50.162;8.548;2024-03-06T13:26:57;15.50;99.90
24638;DHT22;12773;50.162;8.548;2024-03-06T13:29:45;15.60;99.90
24638;DHT22;12773;50.162;8.548;2024-03-06T13:32:33;15.10;99.90
24638;DHT22;12773;50.162;8.548;2024-03-06T13:35:20;14.70;99.90
24638;DHT22;12773;50.162;8.548;2024-03-06T13:38:08;14.60;99.90
24638;DHT22;12773;50.162;8.548;2024-03-06T13:40:56;14.70;99.90
24638;DHT22;12773;50.162;8.548;2024-03-06T13:43:43;14.70;99.90
24638;DHT22;12773;50.162;8.548;2024-03-06T13:46:30;14.70;99.90
24638;DHT22;12773;50.162;8.548;2024-03-06T13:49:43;14.70;99.90
24638;DHT22;12773;50.162;8.548;2024-03-06T13:52:27;14.60;99.90
24638;DHT22;12773;50.162;8.548;2024-03-06T13:55:14;14.40;99.90
24638;DHT22;12773;50.162;8.548;2024-03-06T13:58:01;14.00;99.90
24638;DHT22;12773;50.162;8.548;2024-03-06T14:00:51;14.10;99.90
24638;DHT22;12773;50.162;8.548;2024-03-06T14:03:38;13.90;99.90
24638;DHT22;12773;50.162;8.548;2024-03-06T14:06:26;14.00;99.90
24638;DHT22;12773;50.162;8.548;2024-03-06T14:09:13;14.20;99.90
24638;DHT22;12773;50.162;8.548;2024-03-06T14:12:02;14.40;99.90
24638;DHT22;12773;50.162;8.548;2024-03-06T14:14:50;14.60;99.90
24638;DHT22;12773;50.162;8.548;2024-03-06T14:17:38;14.30;99.90
24638;DHT22;12773;50.162;8.548;2024-03-06T14:20:26;14.00;99.90
24638;DHT22;12773;50.162;8.548;2024-03-06T14:23:13;13.80;99.90
24638;DHT22;12773;50.162;8.548;2024-03-06T14:26:01;13.60;99.90
24638;DHT22;12773;50.162;8.548;2024-03-06T14:28:48;13.60;99.90
24638;DHT22;12773;50.162;8.548;2024-03-06T14:31:36;13.70;99.90
24638;DHT22;12773;50.162;8.548;2024-03-06T14:34:23;13.80;99.90
24638;DHT22;12773;50.162;8.548;2024-03-06T14:37:11;13.60;99.90
24638;DHT22;12773;50.162;8.548;2024-03-06T14:39:58;13.60;99.90
24638;DHT22;12773;50.162;8.548;2024-03-06T14:42:48;13.80;99.90
24638;DHT22;12773;50.162;8.548;2024-03-06T14:45:37;13.80;99.90
24638;DHT22;12773;50.162;8.548;2024-03-06T14:48:25;13.80;99.90
24638;DHT22;12773;50.162;8.548;2024-03-06T14:51:14;13.60;99.90
24638;DHT22;12773;50.162;8.548;2024-03-06T14:54:02;13.50;99.90
24638;DHT22;12773;50.162;8.548;2024-03-06T14:56:50;13.40;99.90
24638;DHT22;12773;50.162;8.548;2024-03-06T14:59:37;13.10;99.90
24638;DHT22;12773;50.162;8.548;2024-03-06T15:02:25;13.10;99.90
24638;DHT22;12773;50.162;8.548;2024-03-06T15:05:12;13.30;99.90
24638;DHT22;12773;50.162;8.548;2024-03-06T15:08:00;13.40;99.90
24638;DHT22;12773;50.162;8.548;2024-03-06T15:10:47;13.30;99.90
24638;DHT22;12773;50.162;8.548;2024-03-06T15:13:35;13.20;99.90
24638;DHT22;12773;50.162;8.548;2024-03-06T15:16:22;13.20;99.90
24638;DHT22;12773;50.162;8.548;2024-03-06T15:19:10;13.10;99.90
24638;DHT22;12773;50.162;8.548;2024-03-06T15:21:58;13.00;99.90
24638;DHT22;12773;50.162;8.548;2024-03-06T15:24:47;13.00;99.90
24638;DHT22;12773;50.162;8.548;2024-03-06T15:27:35;13.00;99.90
24638;DHT22;12773;50.162;8.548;2024-03-06T15:30:22;12.90;99.90
24638;DHT22;12773;50.162;8.548;2024-03-06T15:33:10;12.90;99.90
24638;DHT22;12773;50.162;8.548;2024-03-06T15:35:58;13.00;99.90
24638;DHT22;12773;50.162;8.548;2024-03-06T15:38:47;13.10;99.90
24638;DHT22;12773;50.162;8.548;2024-03-06T15:41:34;13.10;99.90
24638;DHT22;12773;50.162;8.548;2024-03-06T15:44:22;13.10;99.90
24638;DHT22;12773;50.162;8.548;2024-03-06T15:47:10;13.00;99.90
24638;DHT22;12773;50.162;8.548;2024-03-06T15:49:58;13.10;99.90
24638;DHT22;12773;50.162;8.548;2024-03-06T15:52:45;12.90;99.90
24638;DHT22;12773;50.162;8.548;2024-03-06T15:55:33;12.90;99.90
24638;DHT22;12773;50.162;8.548;2024-03-06T15:58:22;12.80;99.90
24638;DHT22;12773;50.162;8.548;2024-03-06T16:01:10;12.80;99.90
24638;DHT22;12773;50.162;8.548;2024-03-06T16:03:57;12.80;99.90
24638;DHT22;12773;50.162;8.548;2024-03-06T16:06:44;12.70;99.90
24638;DHT22;12773;50.162;8.548;2024-03-06T16:09:32;12.70;99.90
24638;DHT22;12773;50.162;8.548;2024-03-06T16:12:20;12.70;99.90
24638;DHT22;12773;50.162;8.548;2024-03-06T16:15:10;12.70;99.90
24638;DHT22;12773;50.162;8.548;2024-03-06T16:17:58;12.60;99.90
24638;DHT22;12773;50.162;8.548;2024-03-06T16:20:45;12.60;99.90
24638;DHT22;12773;50.162;8.548;2024-03-06T16:23:33;12.60;99.90
24638;DHT22;12773;50.162;8.548;2024-03-06T16:26:21;12.50;99.90
24638;DHT22;12773;50.162;8.548;2024-03-06T16:29:09;12.50;99.90
24638;DHT22;12773;50.162;8.548;2024-03-06T16:31:57;12.40;99.90
24638;DHT22;12773;50.162;8.548;2024-03-06T16:34:45;12.30;99.90
24638;DHT22;12773;50.162;8.548;2024-03-06T16:37:33;12.30;99.90
24638;DHT22;12773;50.162;8.548;2024-03-06T16:40:22;12.40;99.90
24638;DHT22;12773;50.162;8.548;2024-03-06T16:43:13;12.20;99.90
24638;DHT22;12773;50.162;8.548;2024-03-06T16:46:02;12.00;99.90
24638;DHT22;12773;50.162;8.548;2024-03-06T16:48:50;11.90;99.90
24638;DHT22;12773;50.162;8.548;2024-03-06T16:51:37;12.00;99.90
24638;DHT22;12773;50.162;8.548;2024-03-06T16:54:25;11.80;99.90
24638;DHT22;12773;50.162;8.548;2024-03-06T16:57:12;11.80;99.90
24638;DHT22;12773;50.162;8.548;2024-03-06T16:59:59;11.70;99.90
24638;DHT22;12773;50.162;8.548;2024-03-06T17:02:47;11.70;99.90
24638;DHT22;12773;50.162;8.548;2024-03-06T17:05:35;11.80;99.90
24638;DHT22;12773;50.162;8.548;2024-03-06T17:08:22;11.60;99.90
24638;DHT22;12773;50.162;8.548;2024-03-06T17:11:12;11.60;99.90
24638;DHT22;12773;50.162;8.548;2024-03-06T17:14:00;11.50;99.90
24638;DHT22;12773;50.162;8.548;2024-03-06T17:16:47;11.50;99.90
24638;DHT22;12773;50.162;8.548;2024-03-06T17:19:35;11.50;99.90
24638;DHT22;12773;50.162;8.548;2024-03-06T17:22:25;11.40;99.90
24638;DHT22;12773;50.162;8.548;2024-03-06T17:25:13;11.20;99.90
24638;DHT22;12773;50.162;8.548;2024-03-06T17:28:00;11.10;99.90
24638;DHT22;12773;50.162;8.548;2024-03-06T17:30:48;11.10;99.90
24638;DHT22;12773;50.162;8.548;2024-03-06T17:33:36;11.10;99.90
24638;DHT22;12773;50.162;8.548;2024-03-06T17:36:23;11.20;99.90
24638;DHT22;12773;50.162;8.548;2024-03-06T17:39:11;11.20;99.90
24638;DHT22;12773;50.162;8.548;2024-03-06T17:41:59;11.10;99.90
24638;DHT22;12773;50.162;8.548;2024-03-06T17:44:46;10.90;99.90
24638;DHT22;12773;50.162;8.548;2024-03-06T17:47:34;10.90;99.90
24638;DHT22;12773;50.162;8.548;2024-03-06T17:50:22;10.70;99.90
24638;DHT22;12773;50.162;8.548;2024-03-06T17:53:10;10.80;99.90
24638;DHT22;12773;50.162;8.548;2024-03-06T17:55:58;10.60;99.90
24638;DHT22;12773;50.162;8.548;2024-03-06T17:58:45;10.40;99.90
24638;DHT22;12773;50.162;8.548;2024-03-06T18:01:33;10.30;99.90
24638;DHT22;12773;50.162;8.548;2024-03-06T18:04:21;10.20;99.90